Terminal Aerodrome Forecast
Issued by NWS Louisville, KY

Home | Current Version | Previous Version | Text Only | Print | Product List | Glossary On
Versions: 1 2 3 4 5 6 7 8 9 10 11 12 13 14 15 16 17 18 19
000
FTUS43 KLMK 222300
TAFLEX
TAF
KLEX 222322Z 2300/2324 22005KT P6SM FEW050
     FM230900 19004KT 4SM BR FEW250
     FM231400 27007KT P6SM SCT040 SCT150
     FM231900 29007KT P6SM VCTS BKN040CB BKN150=

USA.gov is the U.S. government's official web portal to all federal, state and local government web resources and services.